createdAt,value
2019-05-09T00:01:49.872Z,9.87
2019-05-09T00:04:20.296Z,7.17
2019-05-09T00:06:50.722Z,14.40
2019-05-09T00:09:23.137Z,9.70
2019-05-09T00:11:54.568Z,11.37
2019-05-09T00:14:25.147Z,11.30
2019-05-09T00:16:55.612Z,9.57
2019-05-09T00:19:26.034Z,16.53
2019-05-09T00:21:57.819Z,12.63
2019-05-09T00:24:28.323Z,6.40
2019-05-09T00:26:58.839Z,10.37
2019-05-09T00:29:35.629Z,13.10
2019-05-09T00:32:29.707Z,14.90
2019-05-09T00:35:19.080Z,25.03
2019-05-09T00:37:57.901Z,13.50
2019-05-09T00:40:28.331Z,11.20
2019-05-09T00:42:58.743Z,8.40
2019-05-09T00:45:50.898Z,14.07
2019-05-09T00:48:24.860Z,9.30
2019-05-09T00:50:55.637Z,9.40
2019-05-09T00:53:26.055Z,8.57
2019-05-09T00:55:56.639Z,10.97
2019-05-09T00:58:27.123Z,8.07
2019-05-09T01:00:57.656Z,8.10
2019-05-09T01:03:28.079Z,5.20
2019-05-09T01:05:58.506Z,5.07
2019-05-09T01:08:28.934Z,3.73
2019-05-09T01:11:11.112Z,5.30
2019-05-09T01:13:34.158Z,4.73
2019-05-09T01:16:04.922Z,2.40
2019-05-09T01:18:35.831Z,5.57
2019-05-09T01:21:06.297Z,4.97
2019-05-09T01:23:36.717Z,1.50
2019-05-09T01:26:07.234Z,3.50
2019-05-09T01:28:39.379Z,5.43
2019-05-09T01:31:09.888Z,2.43
2019-05-09T01:34:00.792Z,5.43
2019-05-09T01:36:48.789Z,4.00
2019-05-09T01:39:19.216Z,2.47
2019-05-09T01:41:49.643Z,4.47
2019-05-09T01:44:20.070Z,6.50
2019-05-09T01:46:50.498Z,5.03
2019-05-09T01:49:23.115Z,5.53
2019-05-09T01:51:53.814Z,5.13
2019-05-09T01:54:25.773Z,5.87
2019-05-09T01:56:56.402Z,10.17
2019-05-09T01:59:26.941Z,13.50
2019-05-09T02:01:57.462Z,10.23
2019-05-09T02:04:27.999Z,10.50
2019-05-09T02:06:58.418Z,10.47
2019-05-09T02:09:29.950Z,9.20
2019-05-09T02:12:00.397Z,19.33
2019-05-09T02:14:46.947Z,11.53
2019-05-09T02:17:34.946Z,9.97
2019-05-09T02:20:05.743Z,12.43
2019-05-09T02:22:36.821Z,8.60
2019-05-09T02:25:08.477Z,13.60
2019-05-09T02:27:38.983Z,14.87
2019-05-09T02:30:10.682Z,15.13
2019-05-09T02:32:41.088Z,17.27
2019-05-09T02:35:12.744Z,16.53
2019-05-09T02:37:43.181Z,19.73
2019-05-09T02:40:13.919Z,15.40
2019-05-09T02:42:44.334Z,17.17
2019-05-09T02:45:18.470Z,18.40
2019-05-09T02:47:49.013Z,14.83
2019-05-09T02:50:19.911Z,20.73
2019-05-09T02:52:50.559Z,18.03
2019-05-09T02:55:21.079Z,17.93
2019-05-09T02:57:53.069Z,13.10
2019-05-09T03:00:34.021Z,24.73
2019-05-09T03:03:23.387Z,11.57
2019-05-09T03:05:53.906Z,16.77
2019-05-09T03:08:24.443Z,16.47
2019-05-09T03:10:58.852Z,13.13
2019-05-09T03:13:29.090Z,4.83
2019-05-09T03:16:08.327Z,13.23
2019-05-09T03:18:38.859Z,13.20
2019-05-09T03:21:31.321Z,7.47
2019-05-09T03:24:01.821Z,6.77
2019-05-09T03:26:38.451Z,7.43
2019-05-09T03:29:29.710Z,8.67
2019-05-09T03:32:00.823Z,8.20
2019-05-09T03:34:31.281Z,9.30
2019-05-09T03:37:01.709Z,8.60
2019-05-09T03:39:32.132Z,6.53
2019-05-09T03:42:02.560Z,7.57
2019-05-09T03:44:32.986Z,11.17
2019-05-09T03:47:24.713Z,9.07
2019-05-09T03:50:18.073Z,8.87
2019-05-09T03:52:49.632Z,9.20
2019-05-09T03:55:28.166Z,9.77
2019-05-09T03:58:19.353Z,9.53
2019-05-09T04:00:49.792Z,9.97
2019-05-09T04:03:20.479Z,9.10
2019-05-09T04:05:58.686Z,8.30
2019-05-09T04:08:23.023Z,6.23
2019-05-09T04:10:55.083Z,5.47
2019-05-09T04:13:38.381Z,8.60
2019-05-09T04:16:08.403Z,10.23
2019-05-09T04:18:40.252Z,10.43
2019-05-09T04:21:10.924Z,8.93
2019-05-09T04:23:41.344Z,6.77
2019-05-09T04:26:21.871Z,7.17
2019-05-09T04:28:52.489Z,6.93
2019-05-09T04:31:23.129Z,9.03
2019-05-09T04:33:53.752Z,6.70
2019-05-09T04:36:39.201Z,10.57
2019-05-09T04:39:12.601Z,4.30
2019-05-09T04:41:44.191Z,8.30
2019-05-09T04:44:21.819Z,12.70
2019-05-09T04:46:54.136Z,6.23
2019-05-09T04:49:25.251Z,6.90
2019-05-09T04:51:55.679Z,9.83
2019-05-09T04:54:28.004Z,5.93
2019-05-09T04:56:58.268Z,7.60
2019-05-09T04:59:29.722Z,4.57
2019-05-09T05:02:21.856Z,5.37
2019-05-09T05:04:52.335Z,7.50
2019-05-09T05:07:22.814Z,6.07
2019-05-09T05:09:53.244Z,5.17
2019-05-09T05:12:23.665Z,7.50
2019-05-09T05:14:54.082Z,6.17
2019-05-09T05:17:24.519Z,8.17
2019-05-09T05:19:57.852Z,6.60
2019-05-09T05:22:34.078Z,10.43
2019-05-09T05:25:05.288Z,4.73
2019-05-09T05:27:37.631Z,4.70
2019-05-09T05:30:08.462Z,5.60
2019-05-09T05:33:04.158Z,6.07
2019-05-09T05:35:50.875Z,6.17
2019-05-09T05:38:21.388Z,7.97
2019-05-09T05:40:51.942Z,7.67
2019-05-09T05:43:22.552Z,8.23
2019-05-09T05:45:59.486Z,8.83
2019-05-09T05:48:31.510Z,4.53
2019-05-09T05:51:02.073Z,7.17
2019-05-09T05:53:32.862Z,5.77
2019-05-09T05:56:03.539Z,8.60
2019-05-09T05:58:34.179Z,5.87
2019-05-09T06:01:04.953Z,7.30
2019-05-09T06:03:37.618Z,16.43
2019-05-09T06:06:08.835Z,6.37
2019-05-09T06:08:39.543Z,8.43
2019-05-09T06:11:12.273Z,5.50
2019-05-09T06:13:53.159Z,8.27
2019-05-09T06:16:15.001Z,6.03
2019-05-09T06:18:47.419Z,6.17
2019-05-09T06:21:17.826Z,8.53
2019-05-09T06:23:48.345Z,7.33
2019-05-09T06:26:19.056Z,11.07
2019-05-09T06:28:49.589Z,7.20
2019-05-09T06:31:20.164Z,8.13
2019-05-09T06:33:53.512Z,8.97
2019-05-09T06:36:22.890Z,9.80
2019-05-09T06:38:53.354Z,9.57
2019-05-09T06:41:24.108Z,6.80
2019-05-09T06:44:17.250Z,7.17
2019-05-09T06:46:53.985Z,9.93
2019-05-09T06:49:31.783Z,10.10
2019-05-09T06:52:01.115Z,9.20
2019-05-09T06:54:31.534Z,8.47
2019-05-09T06:57:01.968Z,14.30
2019-05-09T06:59:32.560Z,10.63
2019-05-09T07:02:08.045Z,12.77
2019-05-09T07:04:41.985Z,10.93
2019-05-09T07:07:17.645Z,9.17
2019-05-09T07:09:52.333Z,10.70
2019-05-09T07:12:22.760Z,12.47
2019-05-09T07:14:53.362Z,11.17
2019-05-09T07:17:23.816Z,7.67
2019-05-09T07:19:54.257Z,10.73
2019-05-09T07:22:58.572Z,14.77
2019-05-09T07:25:59.919Z,9.33
2019-05-09T07:28:30.550Z,10.70
2019-05-09T07:31:19.923Z,9.83
2019-05-09T07:34:15.435Z,11.37
2019-05-09T07:36:47.618Z,9.03
2019-05-09T07:39:18.083Z,8.40
2019-05-09T07:41:48.564Z,8.63
2019-05-09T07:44:19.035Z,9.03
2019-05-09T07:47:08.361Z,9.03
2019-05-09T07:49:38.990Z,10.67
2019-05-09T07:52:10.286Z,10.10
2019-05-09T07:54:41.079Z,10.67
2019-05-09T07:57:12.020Z,10.00
2019-05-09T07:59:47.818Z,7.93
2019-05-09T08:02:18.086Z,7.70
2019-05-09T08:04:49.853Z,8.00
2019-05-09T08:07:20.477Z,9.23
2019-05-09T08:09:51.112Z,5.90
2019-05-09T08:12:21.540Z,7.57
2019-05-09T08:15:07.415Z,11.90
2019-05-09T08:17:24.031Z,9.00
2019-05-09T08:19:58.118Z,9.23
2019-05-09T08:22:32.366Z,6.20
2019-05-09T08:24:59.961Z,8.47
2019-05-09T08:27:30.463Z,8.77
2019-05-09T08:30:00.873Z,8.73
2019-05-09T08:32:31.552Z,11.00
2019-05-09T08:35:02.302Z,11.57
2019-05-09T08:37:32.871Z,10.80
2019-05-09T08:40:03.452Z,7.73
2019-05-09T08:42:33.931Z,11.03
2019-05-09T08:45:08.536Z,9.43
2019-05-09T08:47:38.225Z,10.50
2019-05-09T08:50:24.875Z,8.33
2019-05-09T08:52:57.467Z,8.97
2019-05-09T08:55:28.597Z,11.17
2019-05-09T08:58:00.619Z,8.27
2019-05-09T09:00:33.134Z,6.97
2019-05-09T09:03:03.562Z,9.97
2019-05-09T09:05:34.030Z,12.07
2019-05-09T09:08:04.420Z,11.70
2019-05-09T09:10:38.413Z,8.57
2019-05-09T09:13:08.751Z,9.13
2019-05-09T09:16:04.585Z,12.93
2019-05-09T09:18:13.496Z,11.87
2019-05-09T09:20:43.923Z,8.37
2019-05-09T09:23:14.862Z,11.30
2019-05-09T09:25:45.300Z,10.43
2019-05-09T09:28:17.725Z,8.70
2019-05-09T09:30:48.950Z,6.87
2019-05-09T09:33:19.593Z,7.17
2019-05-09T09:35:50.075Z,11.77
2019-05-09T09:38:20.602Z,9.33
2019-05-09T09:40:51.279Z,10.07
2019-05-09T09:43:22.901Z,7.27
2019-05-09T09:46:07.319Z,8.23
2019-05-09T09:48:28.457Z,8.47
2019-05-09T09:50:59.080Z,13.53
2019-05-09T09:53:29.518Z,5.57
2019-05-09T09:56:00.330Z,10.23
2019-05-09T09:58:30.875Z,10.23
2019-05-09T10:01:21.475Z,8.30
2019-05-09T10:04:14.518Z,6.47
2019-05-09T10:06:30.479Z,11.40
2019-05-09T10:09:00.962Z,5.27
2019-05-09T10:11:32.612Z,6.47
2019-05-09T10:14:05.139Z,5.33
2019-05-09T10:16:58.181Z,5.53
2019-05-09T10:19:56.851Z,6.00
2019-05-09T10:22:27.501Z,6.70
2019-05-09T10:24:58.569Z,8.13
2019-05-09T10:27:30.475Z,6.93
2019-05-09T10:30:01.911Z,6.57
2019-05-09T10:32:32.384Z,6.63
2019-05-09T10:35:03.081Z,6.17
2019-05-09T10:37:32.582Z,6.37
2019-05-09T10:40:04.041Z,6.17
2019-05-09T10:42:48.349Z,4.93
2019-05-09T10:45:35.000Z,6.93
2019-05-09T10:48:05.419Z,4.23
2019-05-09T10:50:43.088Z,6.87
2019-05-09T10:53:08.272Z,7.63
2019-05-09T10:55:38.852Z,5.00
2019-05-09T10:58:09.279Z,5.60
2019-05-09T11:00:40.081Z,5.83
2019-05-09T11:03:10.607Z,4.60
2019-05-09T11:05:41.278Z,5.63
2019-05-09T11:08:11.698Z,6.70
2019-05-09T11:10:43.154Z,6.00
2019-05-09T11:13:13.749Z,6.73
2019-05-09T11:15:44.475Z,4.70
2019-05-09T11:18:15.051Z,6.00
2019-05-09T11:20:46.396Z,3.83
2019-05-09T11:23:19.371Z,3.87
2019-05-09T11:25:50.603Z,6.55
2019-05-09T11:28:21.842Z,6.20
2019-05-09T11:30:53.363Z,6.15
2019-05-09T11:33:24.654Z,6.07
2019-05-09T11:35:58.127Z,7.03
2019-05-09T11:38:34.708Z,8.08
2019-05-09T11:41:02.379Z,7.25
2019-05-09T11:43:33.580Z,4.25
2019-05-09T11:46:05.113Z,5.72
2019-05-09T11:48:38.154Z,5.12
2019-05-09T11:51:10.499Z,4.92
2019-05-09T11:53:41.527Z,6.80
2019-05-09T11:56:12.852Z,3.25
2019-05-09T11:58:43.280Z,2.47
2019-05-09T12:01:14.463Z,4.33
2019-05-09T12:03:48.036Z,3.90
2019-05-09T12:06:19.691Z,5.85
2019-05-09T12:08:49.287Z,5.33
2019-05-09T12:11:19.817Z,3.95
2019-05-09T12:13:50.250Z,5.47
2019-05-09T12:16:20.711Z,5.80
2019-05-09T12:18:51.205Z,6.80
2019-05-09T12:21:21.631Z,4.55
2019-05-09T12:23:52.056Z,4.70
2019-05-09T12:26:22.471Z,3.85
2019-05-09T12:28:52.926Z,3.80
2019-05-09T12:31:23.442Z,3.42
2019-05-09T12:33:53.934Z,3.35
2019-05-09T12:36:24.444Z,3.80
2019-05-09T12:38:54.939Z,3.12
2019-05-09T12:41:25.454Z,2.60
2019-05-09T12:43:57.430Z,4.65
2019-05-09T12:46:28.525Z,3.02
2019-05-09T12:48:59.525Z,4.78
2019-05-09T12:51:30.037Z,3.83
2019-05-09T12:54:00.454Z,3.15
2019-05-09T12:56:30.884Z,4.03
2019-05-09T12:59:01.308Z,1.42
2019-05-09T13:01:31.764Z,2.62
2019-05-09T13:04:02.331Z,1.52
2019-05-09T13:06:32.793Z,3.77
2019-05-09T13:09:03.691Z,3.37
2019-05-09T13:11:34.160Z,3.42
2019-05-09T13:14:04.801Z,2.50
2019-05-09T13:17:00.716Z,3.95
2019-05-09T13:19:38.192Z,3.25
2019-05-09T13:22:08.830Z,4.87
2019-05-09T13:24:39.440Z,4.33
2019-05-09T13:27:10.074Z,2.50
2019-05-09T13:29:40.556Z,4.90
2019-05-09T13:32:10.959Z,3.40
2019-05-09T13:34:41.579Z,3.85
2019-05-09T13:37:12.014Z,5.00
2019-05-09T13:39:42.445Z,3.95
2019-05-09T13:42:12.870Z,2.15
2019-05-09T13:44:43.300Z,3.05
2019-05-09T13:47:13.872Z,4.35
2019-05-09T13:49:44.358Z,2.05
2019-05-09T13:52:14.783Z,3.72
2019-05-09T13:54:45.201Z,3.50
2019-05-09T13:57:15.636Z,3.52
2019-05-09T13:59:48.377Z,3.25
2019-05-09T14:02:18.933Z,5.42
2019-05-09T14:04:49.604Z,2.52
2019-05-09T14:07:20.006Z,5.12
2019-05-09T14:09:51.458Z,3.60
2019-05-09T14:12:21.885Z,2.92
2019-05-09T14:14:52.347Z,3.98
2019-05-09T14:17:41.944Z,4.22
2019-05-09T14:19:55.141Z,6.10
2019-05-09T14:22:25.648Z,5.10
2019-05-09T14:24:58.395Z,3.27
2019-05-09T14:27:28.895Z,4.05
2019-05-09T14:29:59.872Z,3.47
2019-05-09T14:32:34.800Z,3.70
2019-05-09T14:35:03.049Z,7.72
2019-05-09T14:37:33.670Z,7.03
2019-05-09T14:40:05.342Z,6.00
2019-05-09T14:42:36.020Z,5.10
2019-05-09T14:45:08.450Z,3.62
2019-05-09T14:47:42.207Z,5.67
2019-05-09T14:50:12.024Z,5.17
2019-05-09T14:52:42.440Z,6.30
2019-05-09T14:55:13.274Z,6.60
2019-05-09T14:57:43.701Z,5.10
2019-05-09T15:00:14.407Z,6.20
2019-05-09T15:02:44.863Z,6.33
2019-05-09T15:05:18.632Z,4.47
2019-05-09T15:07:47.714Z,3.43
2019-05-09T15:10:18.794Z,5.80
2019-05-09T15:12:49.437Z,4.30
2019-05-09T15:15:19.968Z,3.80
2019-05-09T15:17:50.488Z,7.47
2019-05-09T15:20:21.024Z,4.50
2019-05-09T15:22:51.617Z,5.20
2019-05-09T15:25:22.096Z,8.23
2019-05-09T15:27:52.612Z,6.43
2019-05-09T15:30:23.311Z,6.07
2019-05-09T15:32:53.775Z,3.53
2019-05-09T15:35:24.249Z,6.07
2019-05-09T15:37:54.842Z,4.87
2019-05-09T15:40:28.071Z,9.30
2019-05-09T15:42:58.783Z,6.23
2019-05-09T15:45:31.326Z,6.90
2019-05-09T15:48:02.899Z,6.27
2019-05-09T15:50:33.319Z,7.77
2019-05-09T15:53:03.795Z,8.30
2019-05-09T15:55:34.273Z,7.63
2019-05-09T15:58:04.700Z,5.57
2019-05-09T16:00:38.569Z,6.70
2019-05-09T16:03:08.526Z,4.57
2019-05-09T16:05:39.157Z,8.93
2019-05-09T16:08:11.556Z,7.83
2019-05-09T16:10:40.818Z,7.70
2019-05-09T16:13:11.258Z,7.73
2019-05-09T16:15:48.729Z,6.47
2019-05-09T16:18:20.791Z,10.77
2019-05-09T16:20:51.249Z,6.47
2019-05-09T16:23:21.770Z,9.83
2019-05-09T16:25:52.200Z,5.07
2019-05-09T16:28:22.626Z,10.20
2019-05-09T16:30:54.179Z,6.43
2019-05-09T16:33:24.603Z,9.70
2019-05-09T16:35:55.074Z,7.57
2019-05-09T16:38:41.201Z,8.47
2019-05-09T16:40:58.300Z,10.57
2019-05-09T16:43:28.875Z,6.63
2019-05-09T16:45:59.402Z,7.60
2019-05-09T16:48:29.827Z,4.13
2019-05-09T16:51:04.137Z,4.53
2019-05-09T16:53:34.055Z,3.63
2019-05-09T16:56:04.591Z,5.40
2019-05-09T16:58:35.017Z,5.53
2019-05-09T17:01:08.166Z,9.17
2019-05-09T17:03:40.162Z,6.20
2019-05-09T17:06:10.730Z,7.67
2019-05-09T17:08:41.323Z,6.37
2019-05-09T17:11:12.262Z,7.87
2019-05-09T17:13:42.719Z,8.60
2019-05-09T17:16:13.407Z,6.03
2019-05-09T17:18:43.861Z,6.87
2019-05-09T17:21:42.041Z,5.73
2019-05-09T17:24:15.395Z,9.50
2019-05-09T17:26:48.667Z,6.63
2019-05-09T17:29:19.162Z,10.43
2019-05-09T17:31:49.692Z,6.70
2019-05-09T17:34:20.105Z,6.77
2019-05-09T17:36:50.588Z,9.30
2019-05-09T17:39:21.289Z,11.57
2019-05-09T17:41:51.876Z,6.23
2019-05-09T17:44:22.339Z,14.80
2019-05-09T17:46:52.861Z,7.27
2019-05-09T17:49:23.289Z,6.63
2019-05-09T17:51:53.723Z,5.93
2019-05-09T17:54:24.246Z,5.40
2019-05-09T17:56:54.716Z,4.13
2019-05-09T17:59:25.202Z,9.57
2019-05-09T18:01:57.771Z,8.80
2019-05-09T18:04:28.780Z,4.57
2019-05-09T18:06:59.575Z,4.80
2019-05-09T18:09:30.084Z,4.60
2019-05-09T18:12:00.512Z,6.40
2019-05-09T18:14:31.043Z,7.40
2019-05-09T18:17:01.485Z,6.03
2019-05-09T18:19:31.912Z,6.57
2019-05-09T18:22:01.396Z,7.63
2019-05-09T18:24:31.840Z,5.90
2019-05-09T18:27:02.446Z,5.97
2019-05-09T18:29:32.885Z,8.83
2019-05-09T18:32:19.806Z,7.00
2019-05-09T18:34:52.537Z,4.83
2019-05-09T18:37:22.441Z,5.17
2019-05-09T18:39:53.396Z,6.80
2019-05-09T18:42:23.876Z,6.03
2019-05-09T18:44:54.291Z,6.00
2019-05-09T18:47:24.836Z,4.93
2019-05-09T18:49:57.191Z,6.67
2019-05-09T18:52:27.627Z,9.97
2019-05-09T18:54:58.657Z,7.87
2019-05-09T18:57:29.143Z,5.57
2019-05-09T18:59:59.629Z,7.83
2019-05-09T19:02:32.294Z,5.80
2019-05-09T19:05:02.830Z,8.47
2019-05-09T19:07:34.486Z,8.67
2019-05-09T19:10:08.156Z,8.20
2019-05-09T19:12:40.129Z,4.73
2019-05-09T19:15:33.823Z,6.43
2019-05-09T19:18:17.146Z,6.27
2019-05-09T19:20:56.986Z,7.80
2019-05-09T19:23:33.366Z,9.30
2019-05-09T19:26:30.329Z,7.87
2019-05-09T19:29:02.336Z,8.17
2019-05-09T19:31:32.946Z,7.13
2019-05-09T19:34:14.087Z,9.50
2019-05-09T19:36:45.873Z,11.83
2019-05-09T19:39:20.391Z,6.17
2019-05-09T19:41:57.697Z,7.70
2019-05-09T19:44:28.491Z,9.33
2019-05-09T19:47:01.770Z,9.17
2019-05-09T19:49:34.992Z,9.13
2019-05-09T19:52:06.940Z,9.77
2019-05-09T19:54:40.963Z,7.60
2019-05-09T19:57:19.547Z,8.97
2019-05-09T19:59:54.297Z,10.67
2019-05-09T20:02:29.537Z,11.10
2019-05-09T20:05:08.982Z,11.97
2019-05-09T20:07:43.163Z,10.60
2019-05-09T20:10:33.587Z,8.83
2019-05-09T20:13:18.258Z,11.03
2019-05-09T20:15:51.045Z,14.87
2019-05-09T20:18:27.294Z,9.47
2019-05-09T20:21:06.767Z,16.07
2019-05-09T20:23:38.574Z,9.83
2019-05-09T20:26:19.770Z,10.03
2019-05-09T20:29:02.955Z,7.03
2019-05-09T20:31:33.479Z,8.67
2019-05-09T20:34:05.016Z,10.20
2019-05-09T20:36:38.481Z,8.23
2019-05-09T20:39:11.592Z,10.60
2019-05-09T20:41:43.563Z,11.70
2019-05-09T20:44:14.373Z,9.87
2019-05-09T20:46:44.990Z,9.33
2019-05-09T20:49:15.738Z,10.93
2019-05-09T20:51:46.585Z,12.87
2019-05-09T20:54:21.015Z,8.20
2019-05-09T20:56:49.816Z,10.27
2019-05-09T20:59:20.745Z,11.53
2019-05-09T21:01:52.099Z,11.40
2019-05-09T21:04:22.833Z,10.93
2019-05-09T21:06:54.770Z,16.37
2019-05-09T21:09:25.562Z,11.10
2019-05-09T21:11:56.843Z,12.60
2019-05-09T21:14:27.519Z,9.57
2019-05-09T21:16:58.225Z,11.80
2019-05-09T21:19:28.935Z,9.57
2019-05-09T21:21:59.617Z,10.03
2019-05-09T21:24:30.320Z,9.87
2019-05-09T21:27:00.955Z,14.27
2019-05-09T21:29:33.123Z,12.33
2019-05-09T21:32:04.175Z,11.13
2019-05-09T21:34:34.743Z,9.47
2019-05-09T21:37:05.526Z,9.33
2019-05-09T21:39:36.110Z,12.90
2019-05-09T21:42:06.628Z,10.00
2019-05-09T21:44:37.132Z,12.87
2019-05-09T21:47:07.683Z,12.80
2019-05-09T21:49:38.322Z,11.30
2019-05-09T21:52:08.858Z,7.90
2019-05-09T21:54:39.460Z,14.77
2019-05-09T21:57:10.060Z,11.57
2019-05-09T21:59:40.800Z,11.50
2019-05-09T22:02:11.599Z,14.67
2019-05-09T22:04:42.255Z,13.63
2019-05-09T22:07:13.125Z,13.73
2019-05-09T22:09:43.644Z,28.40
2019-05-09T22:12:14.377Z,16.37
2019-05-09T22:14:45.122Z,18.17
2019-05-09T22:17:21.657Z,15.27
2019-05-09T22:19:52.213Z,14.20
2019-05-09T22:22:22.645Z,17.50
2019-05-09T22:24:53.205Z,13.93
2019-05-09T22:27:23.694Z,18.20
2019-05-09T22:29:54.211Z,17.13
2019-05-09T22:32:24.641Z,19.03
2019-05-09T22:34:55.072Z,13.03
2019-05-09T22:37:25.534Z,19.17
2019-05-09T22:39:56.068Z,16.00
2019-05-09T22:42:26.551Z,18.97
2019-05-09T22:44:56.980Z,15.73
2019-05-09T22:47:27.409Z,15.23
2019-05-09T22:49:59.062Z,20.33
2019-05-09T22:52:29.488Z,16.43
2019-05-09T22:54:59.915Z,19.07
2019-05-09T22:57:30.342Z,17.83
2019-05-09T23:00:02.384Z,22.47
2019-05-09T23:02:33.045Z,24.67
2019-05-09T23:05:03.576Z,18.23
2019-05-09T23:07:34.001Z,16.90
2019-05-09T23:10:04.833Z,15.73
2019-05-09T23:12:35.465Z,13.50
2019-05-09T23:15:07.799Z,14.47
2019-05-09T23:17:38.265Z,16.40
2019-05-09T23:20:11.534Z,16.23
2019-05-09T23:22:41.070Z,18.40
2019-05-09T23:25:11.591Z,16.30
2019-05-09T23:27:42.162Z,18.33
2019-05-09T23:30:13.027Z,15.03
2019-05-09T23:32:45.355Z,17.00
2019-05-09T23:35:14.846Z,16.73
2019-05-09T23:37:45.273Z,17.77
2019-05-09T23:40:16.827Z,16.90
2019-05-09T23:42:46.421Z,16.77
2019-05-09T23:45:16.942Z,18.13
2019-05-09T23:47:47.388Z,17.90
2019-05-09T23:50:18.831Z,16.57
2019-05-09T23:52:49.259Z,16.23
2019-05-09T23:55:37.912Z,19.00
2019-05-09T23:58:26.054Z,18.03
